createdAt,value
2022-10-23T05:02:12.470Z,15.00
2022-10-23T05:04:39.544Z,15.00
2022-10-23T05:07:39.345Z,15.00
2022-10-23T05:10:29.915Z,15.00
2022-10-23T05:13:12.883Z,15.00
2022-10-23T05:15:40.526Z,15.10
2022-10-23T05:18:44.474Z,15.10
2022-10-23T05:21:22.338Z,15.10
2022-10-23T05:23:50.781Z,15.10
2022-10-23T05:26:17.980Z,15.20
2022-10-23T05:28:46.963Z,15.20
2022-10-23T05:31:19.005Z,15.20
2022-10-23T05:33:50.105Z,15.20
2022-10-23T05:36:19.554Z,15.20
2022-10-23T05:38:46.912Z,15.20
2022-10-23T05:41:16.912Z,15.20
2022-10-23T05:43:43.891Z,15.20
2022-10-23T05:46:29.584Z,15.20
2022-10-23T05:49:16.819Z,15.20
2022-10-23T05:52:04.365Z,15.20
2022-10-23T05:54:44.089Z,15.20
2022-10-23T05:57:40.496Z,15.20
2022-10-23T06:00:11.526Z,15.20
2022-10-23T06:02:41.495Z,15.20
2022-10-23T06:05:25.162Z,15.20
2022-10-23T06:08:10.568Z,15.20
2022-10-23T06:10:37.997Z,15.10
2022-10-23T06:13:07.662Z,15.10
2022-10-23T06:15:35.092Z,15.10
2022-10-23T06:18:22.194Z,15.20
2022-10-23T06:21:01.408Z,15.20
2022-10-23T06:23:31.978Z,15.20
2022-10-23T06:26:19.379Z,15.20
2022-10-23T06:28:57.469Z,15.20
2022-10-23T06:31:28.351Z,15.20
2022-10-23T06:33:59.056Z,15.20
2022-10-23T06:36:29.581Z,15.20
2022-10-23T06:39:29.795Z,15.20
2022-10-23T06:42:13.553Z,15.20
2022-10-23T06:44:55.984Z,15.20
2022-10-23T06:47:52.623Z,15.20
2022-10-23T06:50:39.003Z,15.20
2022-10-23T06:53:15.633Z,15.20
2022-10-23T06:55:50.149Z,15.20
2022-10-23T06:58:19.858Z,15.30
2022-10-23T07:01:06.756Z,15.30
2022-10-23T07:03:36.578Z,15.30
2022-10-23T07:06:09.096Z,15.30
2022-10-23T07:08:37.351Z,15.40
2022-10-23T07:11:13.733Z,15.40
2022-10-23T07:13:44.580Z,15.40
2022-10-23T07:16:22.002Z,15.40
2022-10-23T07:18:53.991Z,15.50
2022-10-23T07:21:43.436Z,15.50
2022-10-23T07:24:38.483Z,15.60
2022-10-23T07:27:14.350Z,15.60
2022-10-23T07:29:42.126Z,15.70
2022-10-23T07:32:09.291Z,15.70
2022-10-23T07:34:54.453Z,15.80
2022-10-23T07:37:30.432Z,15.80
2022-10-23T07:39:59.523Z,15.90
2022-10-23T07:42:26.552Z,15.90
2022-10-23T07:44:53.497Z,16.00
2022-10-23T07:47:21.460Z,16.00
2022-10-23T07:49:51.167Z,16.00
2022-10-23T07:52:20.173Z,16.00
2022-10-23T07:55:10.399Z,16.10
2022-10-23T07:57:40.976Z,16.10
2022-10-23T08:00:16.437Z,16.20
2022-10-23T08:02:53.604Z,16.20
2022-10-23T08:05:20.559Z,16.30
2022-10-23T08:07:54.248Z,16.30
2022-10-23T08:10:22.146Z,16.40
2022-10-23T08:12:48.934Z,16.40
2022-10-23T08:15:16.799Z,16.50
2022-10-23T08:17:58.719Z,16.50
2022-10-23T08:20:40.294Z,16.60
2022-10-23T08:23:07.881Z,16.60
2022-10-23T08:25:35.309Z,16.60
2022-10-23T08:28:05.528Z,16.60
2022-10-23T08:30:38.849Z,16.60
2022-10-23T08:33:07.240Z,16.70
2022-10-23T08:35:38.564Z,16.70
2022-10-23T08:38:06.926Z,16.70
2022-10-23T08:40:43.369Z,16.70
2022-10-23T08:43:34.425Z,16.70
2022-10-23T08:46:19.235Z,16.80
2022-10-23T08:49:24.453Z,16.90
2022-10-23T08:52:03.398Z,16.90
2022-10-23T08:54:37.754Z,17.00
2022-10-23T08:57:12.865Z,17.10
2022-10-23T08:59:54.015Z,17.20
2022-10-23T09:02:35.576Z,17.30
2022-10-23T09:05:02.635Z,17.30
2022-10-23T09:07:45.214Z,17.40
2022-10-23T09:10:38.290Z,17.40
2022-10-23T09:13:30.832Z,17.40
2022-10-23T09:16:30.922Z,17.30
2022-10-23T09:18:58.257Z,17.30
2022-10-23T09:21:29.151Z,17.20
2022-10-23T09:23:56.606Z,17.20
2022-10-23T09:26:23.596Z,17.20
2022-10-23T09:28:55.229Z,17.20
2022-10-23T09:31:22.124Z,17.20
2022-10-23T09:33:57.191Z,17.20
2022-10-23T09:36:25.926Z,17.20
2022-10-23T09:38:54.757Z,17.20
2022-10-23T09:41:39.504Z,17.20
2022-10-23T09:44:18.957Z,17.30
2022-10-23T09:46:53.787Z,17.30
2022-10-23T09:49:26.672Z,17.30
2022-10-23T09:52:00.522Z,17.30
2022-10-23T09:54:28.879Z,17.40
2022-10-23T09:56:58.683Z,17.40
2022-10-23T09:59:29.387Z,17.40
2022-10-23T10:01:59.864Z,17.50
2022-10-23T10:04:41.791Z,17.60
2022-10-23T10:07:20.748Z,17.60
2022-10-23T10:09:48.486Z,17.70
2022-10-23T10:12:27.300Z,17.80
2022-10-23T10:15:12.699Z,17.80
2022-10-23T10:18:04.390Z,17.80
2022-10-23T10:20:43.527Z,17.80
2022-10-23T10:23:28.647Z,17.90
2022-10-23T10:26:16.163Z,17.90
2022-10-23T10:29:05.222Z,18.00
2022-10-23T10:32:06.116Z,18.00
2022-10-23T10:34:51.250Z,18.10
2022-10-23T10:37:54.696Z,18.20
2022-10-23T10:40:39.438Z,18.30
2022-10-23T10:43:28.633Z,18.30
2022-10-23T10:46:24.584Z,18.40
2022-10-23T10:48:59.276Z,18.50
2022-10-23T10:51:51.344Z,18.60
2022-10-23T10:54:43.050Z,18.70
2022-10-23T10:57:33.713Z,18.80
2022-10-23T11:00:22.468Z,19.00
2022-10-23T11:03:14.079Z,19.00
2022-10-23T11:05:47.610Z,19.10
2022-10-23T11:08:31.948Z,19.10
2022-10-23T11:11:10.796Z,19.00
2022-10-23T11:13:40.679Z,19.10
2022-10-23T11:16:19.819Z,19.20
2022-10-23T11:19:11.309Z,19.20
2022-10-23T11:21:50.552Z,19.30
2022-10-23T11:24:43.172Z,19.30
2022-10-23T11:27:26.319Z,19.50
2022-10-23T11:30:12.781Z,19.60
2022-10-23T11:33:06.912Z,19.80
2022-10-23T11:35:45.842Z,20.00
2022-10-23T11:38:28.464Z,20.20
2022-10-23T11:40:59.674Z,20.30
2022-10-23T11:43:33.503Z,20.40
2022-10-23T11:46:13.741Z,20.40
2022-10-23T11:48:42.999Z,20.50
2022-10-23T11:51:28.127Z,20.50
2022-10-23T11:54:11.617Z,20.50
2022-10-23T11:56:51.105Z,20.50
2022-10-23T11:59:27.605Z,20.60
2022-10-23T12:01:56.622Z,20.60
2022-10-23T12:04:40.073Z,20.60
2022-10-23T12:07:21.714Z,20.60
2022-10-23T12:10:00.724Z,20.60
2022-10-23T12:12:31.398Z,20.70
2022-10-23T12:15:12.171Z,20.70
2022-10-23T12:17:40.673Z,20.70
2022-10-23T12:20:13.615Z,20.70
2022-10-23T12:23:01.828Z,20.80
2022-10-23T12:25:59.791Z,20.80
2022-10-23T12:28:57.743Z,20.80
2022-10-23T12:31:47.967Z,20.80
2022-10-23T12:34:32.666Z,20.90
2022-10-23T12:37:18.137Z,20.90
2022-10-23T12:39:52.818Z,21.00
2022-10-23T12:42:25.216Z,21.00
2022-10-23T12:45:25.479Z,21.00
2022-10-23T12:47:53.441Z,21.00
2022-10-23T12:50:26.878Z,21.10
2022-10-23T12:53:00.978Z,21.10
2022-10-23T12:55:35.057Z,21.10
2022-10-23T12:58:02.972Z,21.20
2022-10-23T13:00:31.048Z,21.20
2022-10-23T13:03:02.693Z,21.30
2022-10-23T13:05:30.659Z,21.30
2022-10-23T13:07:59.304Z,21.30
2022-10-23T13:10:39.458Z,21.30
2022-10-23T13:13:11.302Z,21.30
2022-10-23T13:15:43.587Z,21.30
2022-10-23T13:18:14.260Z,21.40
2022-10-23T13:20:53.300Z,21.40
2022-10-23T13:23:33.659Z,21.40
2022-10-23T13:26:06.523Z,21.40
2022-10-23T13:28:44.923Z,21.40
2022-10-23T13:31:12.400Z,21.40
2022-10-23T13:33:40.346Z,21.40
2022-10-23T13:36:22.635Z,21.40
2022-10-23T13:39:11.361Z,21.40
2022-10-23T13:41:46.475Z,21.40
2022-10-23T13:44:16.011Z,21.40
2022-10-23T13:46:43.988Z,21.40
2022-10-23T13:49:10.913Z,21.40
2022-10-23T13:51:47.615Z,21.40
2022-10-23T13:54:21.235Z,21.40
2022-10-23T13:56:48.791Z,21.40
2022-10-23T13:59:18.028Z,21.40
2022-10-23T14:01:48.381Z,21.40
2022-10-23T14:04:17.038Z,21.40
2022-10-23T14:06:44.230Z,21.40
2022-10-23T14:09:15.037Z,21.40
2022-10-23T14:11:42.687Z,21.40
2022-10-23T14:14:09.940Z,21.40
2022-10-23T14:16:37.222Z,21.40
2022-10-23T14:19:04.283Z,21.50
2022-10-23T14:21:31.401Z,21.50
2022-10-23T14:23:58.626Z,21.60
2022-10-23T14:26:33.125Z,21.70
2022-10-23T14:29:04.228Z,21.80
2022-10-23T14:31:35.496Z,21.70
2022-10-23T14:34:02.481Z,21.60
2022-10-23T14:36:38.559Z,21.50
2022-10-23T14:39:16.835Z,21.40
2022-10-23T14:41:44.133Z,21.20
2022-10-23T14:44:10.993Z,21.20
2022-10-23T14:46:38.644Z,21.10
2022-10-23T14:49:05.950Z,21.10
2022-10-23T14:51:33.128Z,21.10
2022-10-23T14:54:05.028Z,21.10
2022-10-23T14:56:35.625Z,21.10
2022-10-23T14:59:02.958Z,21.10
2022-10-23T15:01:36.210Z,21.00
2022-10-23T15:04:03.557Z,21.00
2022-10-23T15:06:31.436Z,21.00
2022-10-23T15:08:58.711Z,20.80
2022-10-23T15:11:26.428Z,20.80
2022-10-23T15:14:05.651Z,20.70
2022-10-23T15:16:32.605Z,20.70
2022-10-23T15:19:02.348Z,20.60
2022-10-23T15:21:31.872Z,20.50
2022-10-23T15:24:01.185Z,20.50
2022-10-23T15:26:28.205Z,20.50
2022-10-23T16:15:50.738Z,19.90
2022-10-23T16:18:18.790Z,19.90
2022-10-23T16:20:45.715Z,19.90
2022-10-23T16:23:12.825Z,19.90
2022-10-23T16:25:39.958Z,19.90
2022-10-23T16:28:06.892Z,19.90
2022-10-23T16:30:34.219Z,19.90
2022-10-23T16:33:01.197Z,19.90
2022-10-23T16:35:31.061Z,19.80
2022-10-23T16:38:06.870Z,19.80
2022-10-23T16:40:34.540Z,19.80
2022-10-23T16:43:38.543Z,19.80
2022-10-23T16:46:21.317Z,19.70
2022-10-23T16:48:50.136Z,19.70
2022-10-23T16:51:26.969Z,19.70
2022-10-23T16:53:54.038Z,19.70
2022-10-23T16:56:23.747Z,19.70
2022-10-23T16:58:50.794Z,19.70
2022-10-23T17:01:21.659Z,19.70
2022-10-23T17:03:52.732Z,19.60
2022-10-23T17:06:22.538Z,19.70
2022-10-23T17:08:49.786Z,19.60
2022-10-23T17:11:22.512Z,19.60
2022-10-23T17:13:59.370Z,19.60
2022-10-23T17:16:41.396Z,19.60
2022-10-23T17:19:20.496Z,19.50
2022-10-23T17:21:50.129Z,19.50
2022-10-23T17:24:30.095Z,19.50
2022-10-23T17:27:01.264Z,19.40
2022-10-23T17:29:31.776Z,19.40
2022-10-23T17:31:59.050Z,19.40
2022-10-23T17:34:26.155Z,19.40
2022-10-23T17:36:54.597Z,19.40
2022-10-23T17:39:27.703Z,19.30
2022-10-23T17:41:55.043Z,19.30
2022-10-23T17:44:22.264Z,19.30
2022-10-23T17:46:53.772Z,19.30
2022-10-23T17:49:21.655Z,19.30
2022-10-23T17:51:52.675Z,19.30
2022-10-23T17:54:19.582Z,19.40
2022-10-23T17:56:47.100Z,19.40
2022-10-23T17:59:16.546Z,19.40
2022-10-23T18:01:44.685Z,19.40
2022-10-23T18:04:11.885Z,19.40
2022-10-23T18:06:50.958Z,19.40
2022-10-23T18:09:18.558Z,19.40
2022-10-23T18:11:48.176Z,19.50
2022-10-23T18:14:18.007Z,19.50
2022-10-23T18:16:46.136Z,19.50
2022-10-23T18:19:14.749Z,19.50
2022-10-23T18:21:42.151Z,19.50
2022-10-23T18:24:10.024Z,19.60
2022-10-23T18:26:39.689Z,19.60
2022-10-23T18:29:08.945Z,19.60
2022-10-23T18:31:37.983Z,19.60
2022-10-23T18:34:09.169Z,19.60
2022-10-23T18:36:40.080Z,19.60
2022-10-23T18:39:11.567Z,19.70
2022-10-23T18:41:42.127Z,19.70
2022-10-23T18:44:11.514Z,19.70
2022-10-23T18:46:39.572Z,19.70
2022-10-23T18:49:07.090Z,19.70
2022-10-23T18:51:35.782Z,19.70
2022-10-23T18:54:05.904Z,19.70
2022-10-23T18:56:36.178Z,19.70
2022-10-23T18:59:06.018Z,19.70
2022-10-23T19:01:33.813Z,19.60
2022-10-23T19:04:01.826Z,19.60
2022-10-23T19:06:30.494Z,19.60
2022-10-23T19:08:57.941Z,19.60
2022-10-23T19:11:29.193Z,19.60
2022-10-23T19:13:56.419Z,19.60
2022-10-23T19:16:31.478Z,19.60
2022-10-23T19:19:06.796Z,19.60
2022-10-23T19:21:37.348Z,19.50
2022-10-23T19:24:09.905Z,19.50
2022-10-23T19:26:41.393Z,19.50
2022-10-23T19:29:11.763Z,19.50
2022-10-23T19:31:44.893Z,19.40
2022-10-23T19:34:11.793Z,19.40
2022-10-23T19:36:40.232Z,19.40
2022-10-23T19:39:07.850Z,19.30
2022-10-23T19:41:43.455Z,19.30
2022-10-23T19:44:14.826Z,19.30
2022-10-23T19:46:44.787Z,19.20
2022-10-23T19:49:11.838Z,19.20
2022-10-23T19:51:51.002Z,19.10
2022-10-23T19:54:21.396Z,19.10
2022-10-23T19:56:49.597Z,19.00
2022-10-23T19:59:17.389Z,19.00
2022-10-23T20:01:47.852Z,18.90
2022-10-23T20:04:16.858Z,18.90
2022-10-23T20:06:44.014Z,18.80
2022-10-23T20:09:14.201Z,18.80
2022-10-23T20:11:42.666Z,18.80
2022-10-23T20:14:09.569Z,18.70
2022-10-23T20:16:41.413Z,18.70
2022-10-23T20:19:10.448Z,18.70
2022-10-23T20:21:39.511Z,18.70
2022-10-23T20:24:08.274Z,18.60
2022-10-23T20:26:35.419Z,18.60
2022-10-23T20:29:02.806Z,18.50
2022-10-23T20:31:29.849Z,18.50
2022-10-23T20:33:57.397Z,18.50
2022-10-23T20:36:30.298Z,18.40
2022-10-23T20:38:58.927Z,18.40
2022-10-23T20:41:28.851Z,18.30
2022-10-23T20:43:56.427Z,18.20
2022-10-23T20:46:23.889Z,18.20
2022-10-23T20:48:51.413Z,18.20
2022-10-23T20:51:21.332Z,18.20
2022-10-23T20:53:52.284Z,18.10
2022-10-23T20:56:31.046Z,18.10
2022-10-23T20:59:04.076Z,18.10
2022-10-23T21:01:32.559Z,18.10
2022-10-23T21:04:01.422Z,18.00
2022-10-23T21:06:40.987Z,18.00
2022-10-23T21:09:18.887Z,18.00
2022-10-23T21:11:46.406Z,18.00
2022-10-23T21:14:13.452Z,18.00
2022-10-23T21:16:44.342Z,18.00
2022-10-23T21:19:13.708Z,18.00
2022-10-23T21:21:40.577Z,18.10
2022-10-23T21:24:10.515Z,18.10
2022-10-23T21:26:37.640Z,18.10
2022-10-23T21:29:18.044Z,18.10
2022-10-23T21:31:45.874Z,18.10
2022-10-23T21:34:12.862Z,18.20
2022-10-23T21:36:48.487Z,18.20
2022-10-23T21:39:28.537Z,18.20
2022-10-23T21:41:55.562Z,18.20
2022-10-23T21:44:22.563Z,18.20
2022-10-23T21:46:49.716Z,18.20
2022-10-23T21:49:16.601Z,18.20
2022-10-23T21:51:45.717Z,18.20
2022-10-23T21:54:14.968Z,18.20
2022-10-23T21:56:46.406Z,18.20
2022-10-23T21:59:15.954Z,18.20
2022-10-23T22:01:44.759Z,18.20
2022-10-23T22:04:14.315Z,18.20
2022-10-23T22:06:44.125Z,18.20
2022-10-23T22:09:14.903Z,18.20
2022-10-23T22:11:45.225Z,18.10
2022-10-23T22:14:12.162Z,18.10
2022-10-23T22:16:39.122Z,18.00
2022-10-23T22:19:06.429Z,18.00
2022-10-23T22:21:33.824Z,17.90
2022-10-23T22:24:01.166Z,17.90
2022-10-23T22:26:31.464Z,17.90
2022-10-23T22:29:02.010Z,17.90
2022-10-23T22:31:31.917Z,18.00
2022-10-23T22:34:08.554Z,18.00
2022-10-23T22:36:45.918Z,18.00
2022-10-23T22:39:13.117Z,18.00
2022-10-23T22:41:40.236Z,18.00
2022-10-23T22:44:07.037Z,18.10
2022-10-23T22:46:33.927Z,18.10
2022-10-23T22:49:00.815Z,18.10
2022-10-23T22:51:28.830Z,18.10
2022-10-23T22:53:55.955Z,18.20
2022-10-23T22:56:25.050Z,18.10
2022-10-23T22:58:52.355Z,18.10
